Aviation Digital Data Service (ADDS)

Output produced by METARs form (1630 UTC 23 February 2017)
found at http://aviationweather.gov/adds/metars/
 
KLAS 231434Z 2315/2412 32012KT P6SM FEW110 
     FM232100 32008KT P6SM FEW110 
     FM240200 28007KT P6SM SKC